Time;durP1;ratioP1;P1;durP2;ratioP2;P2;SDS_P1;SDS_P2;PMS_P1;PMS_P2;Temp;Humidity;BMP_temperature;BMP_pressure;BME280_temperature;BME280_humidity;BME280_pressure;Samples;Min_cycle;Max_cycle;Signal;HPM_P1;HPM_P2
2021/07/29 00:00:31;;;;;;;;;;;;;;;;;;1482638;40;7062;-69
2021/07/29 00:01:34;;;;;;;;;;;;;;;;;;1478397;40;7962;-70
2021/07/29 00:02:36;;;;;;;;;;;;;;;;;;1479521;40;7950;-69
2021/07/29 00:03:39;;;;;;;;;;;;;;;;;;1482110;40;7016;-68
2021/07/29 00:05:02;;;;;;;;;;;;;;;;;;1482457;40;7007;-70
2021/07/29 00:06:05;;;;;;;;;;;;;;;;;;1482498;40;7024;-70
2021/07/29 00:07:07;;;;;;;;;;;;;;;;;;1482741;40;7444;-69
2021/07/29 00:08:09;;;;;;;;;;;;;;;;;;1482590;40;6999;-68
2021/07/29 00:09:12;;;;;;;;;;;;;;;;;;1482508;40;7035;-70
2021/07/29 00:10:14;;;;;;;;;;;;;;;;;;1482260;40;7003;-69
2021/07/29 00:11:18;;;;;;;;;;;;;;;;;;1482564;40;7899;-69
2021/07/29 00:12:20;;;;;;;;;;;;;;;;;;1480264;40;7020;-69
2021/07/29 00:13:23;;;;;;;;;;;;;;;;;;1481877;40;7016;-71
2021/07/29 00:14:25;;;;;;;;;;;;;;;;;;1485551;40;7035;-71
2021/07/29 00:15:28;;;;;;;;;;;;;;;;;;1482944;40;7012;-69
2021/07/29 00:16:32;;;;;;;;;;;;;;;;;;1478393;40;7003;-70
2021/07/29 00:19:03;;;;;;;;;;;;;;;;;;1478250;40;8248;-70
2021/07/29 00:20:06;;;;;;;;;;;;;;;;;;1478377;40;7016;-69
2021/07/29 00:21:09;;;;;;;;;;;;;;;;;;1478232;40;7900;-71
2021/07/29 00:22:17;;;;;;;;;;;;;;;;;;1478313;40;7052;-70
2021/07/29 00:23:20;;;;;;;;;;;;;;;;;;1478211;40;7003;-70
2021/07/29 00:24:25;;;;;;;;;;;;;;;;;;1478170;40;7003;-70
2021/07/29 00:25:28;;;;;;;;;;;;;;;;;;1478168;40;7012;-69
2021/07/29 00:26:31;;;;;;;;;;;;;;;;;;1477700;40;7044;-70
2021/07/29 00:27:34;;;;;;;;;;;;;;;;;;1482105;40;8616;-69
2021/07/29 00:28:36;;;;;;;;;;;;;;;;;;1482184;40;7010;-70
2021/07/29 00:29:38;;;;;;;;;;;;;;;;;;1482113;40;7031;-69
2021/07/29 00:30:41;;;;;;;;;;;;;;;;;;1482268;40;7008;-70
2021/07/29 00:31:43;;;;;;;;;;;;;;;;;;1482228;40;7035;-70
2021/07/29 00:32:46;;;;;;;;;;;;;;;;;;1478398;40;7003;-72
2021/07/29 00:33:49;;;;;;;;;;;;;;;;;;1478238;40;7194;-72
2021/07/29 00:34:51;;;;;;;;;;;;;;;;;;1479091;40;7090;-72
2021/07/29 00:35:53;;;;;;;;;;;;;;;;;;1477847;40;7003;-73
2021/07/29 00:36:56;;;;;;;;;;;;;;;;;;1478121;40;7031;-73
2021/07/29 00:38:01;;;;;;;;;;;;;;;;;;1478264;40;7497;-72
2021/07/29 00:39:03;;;;;;;;;;;;;;;;;;1478608;40;7494;-71
2021/07/29 00:40:06;;;;;;;;;;;;;;;;;;1479434;40;7034;-72
2021/07/29 00:41:08;;;;;;;;;;;;;;;;;;1481614;40;7048;-71
2021/07/29 00:42:11;;;;;;;;;;;;;;;;;;1482326;40;7896;-72
2021/07/29 00:43:16;;;;;;;;;;;;;;;;;;1482348;40;7003;-73
2021/07/29 00:44:19;;;;;;;;;;;;;;;;;;1482609;40;7026;-71
2021/07/29 00:45:21;;;;;;;;;;;;;;;;;;1482518;40;7031;-72
2021/07/29 00:46:24;;;;;;;;;;;;;;;;;;1482401;40;7030;-73
2021/07/29 00:47:27;;;;;;;;;;;;;;;;;;1482579;40;7043;-72
2021/07/29 00:48:30;;;;;;;;;;;;;;;;;;1482524;40;7063;-71
2021/07/29 00:49:33;;;;;;;;;;;;;;;;;;1482693;40;7112;-71
2021/07/29 00:50:36;;;;;;;;;;;;;;;;;;1482825;40;6999;-72
2021/07/29 00:51:39;;;;;;;;;;;;;;;;;;1482092;40;7043;-71
2021/07/29 00:52:41;;;;;;;;;;;;;;;;;;1478210;40;7206;-72
2021/07/29 00:53:44;;;;;;;;;;;;;;;;;;1479920;40;7011;-73
2021/07/29 00:54:48;;;;;;;;;;;;;;;;;;1477959;40;7019;-71
2021/07/29 00:55:50;;;;;;;;;;;;;;;;;;1482549;40;7023;-72
2021/07/29 00:56:53;;;;;;;;;;;;;;;;;;1482499;40;7202;-72
2021/07/29 00:57:57;;;;;;;;;;;;;;;;;;1482451;40;7008;-72
2021/07/29 00:58:59;;;;;;;;;;;;;;;;;;1481198;40;7051;-71
2021/07/29 01:00:03;;;;;;;;;;;;;;;;;;1480570;40;7038;-72
2021/07/29 01:01:05;;;;;;;;;;;;;;;;;;1482272;40;7012;-73
2021/07/29 01:02:08;;;;;;;;;;;;;;;;;;1482362;40;7043;-73
2021/07/29 01:03:11;;;;;;;;;;;;;;;;;;1479836;40;6999;-71
2021/07/29 01:04:13;;;;;;;;;;;;;;;;;;1478307;40;7008;-73
2021/07/29 01:05:16;;;;;;;;;;;;;;;;;;1478186;40;7008;-72
2021/07/29 01:06:19;;;;;;;;;;;;;;;;;;1478288;40;7066;-72
2021/07/29 01:07:22;;;;;;;;;;;;;;;;;;1478413;40;7000;-71
2021/07/29 01:08:24;;;;;;;;;;;;;;;;;;1478395;40;7109;-71
2021/07/29 01:09:28;;;;;;;;;;;;;;;;;;1478290;40;7087;-72
2021/07/29 01:10:30;;;;;;;;;;;;;;;;;;1478177;40;7004;-72
2021/07/29 01:11:33;;;;;;;;;;;;;;;;;;1478368;40;7039;-72
2021/07/29 01:12:35;;;;;;;;;;;;;;;;;;1478200;40;7039;-71
2021/07/29 01:13:38;;;;;;;;;;;;;;;;;;1478682;40;7008;-72
2021/07/29 01:14:40;;;;;;;;;;;;;;;;;;1478139;40;7939;-71
2021/07/29 01:15:43;;;;;;;;;;;;;;;;;;1478285;40;7039;-71
2021/07/29 01:16:45;;;;;;;;;;;;;;;;;;1478414;40;7059;-72
2021/07/29 01:17:48;;;;;;;;;;;;;;;;;;1478640;40;7039;-72
2021/07/29 01:18:50;;;;;;;;;;;;;;;;;;1478416;40;7004;-71
2021/07/29 01:19:52;;;;;;;;;;;;;;;;;;1477743;40;7050;-71
2021/07/29 01:20:55;;;;;;;;;;;;;;;;;;1478149;40;7540;-71
2021/07/29 01:21:58;;;;;;;;;;;;;;;;;;1479988;40;7048;-72
2021/07/29 01:23:00;;;;;;;;;;;;;;;;;;1480882;40;7016;-72
2021/07/29 01:24:03;;;;;;;;;;;;;;;;;;1477824;40;7063;-72
2021/07/29 01:25:06;;;;;;;;;;;;;;;;;;1477733;40;6995;-72
2021/07/29 01:26:08;;;;;;;;;;;;;;;;;;1478035;40;6996;-72
2021/07/29 01:27:11;;;;;;;;;;;;;;;;;;1477798;40;6999;-72
2021/07/29 01:28:19;;;;;;;;;;;;;;;;;;1478214;40;7350;-73
2021/07/29 01:29:22;;;;;;;;;;;;;;;;;;1477627;40;7043;-72
2021/07/29 01:30:24;;;;;;;;;;;;;;;;;;1477875;40;7066;-72
2021/07/29 01:31:27;;;;;;;;;;;;;;;;;;1478061;40;7031;-71
2021/07/29 01:32:30;;;;;;;;;;;;;;;;;;1478018;40;7035;-71
2021/07/29 01:33:32;;;;;;;;;;;;;;;;;;1478134;40;7003;-71
2021/07/29 01:34:35;;;;;;;;;;;;;;;;;;1477991;40;7003;-71
2021/07/29 01:35:38;;;;;;;;;;;;;;;;;;1478169;40;7003;-71
2021/07/29 01:36:40;;;;;;;;;;;;;;;;;;1477782;40;7003;-71
2021/07/29 01:37:42;;;;;;;;;;;;;;;;;;1478099;40;7012;-72
2021/07/29 01:38:48;;;;;;;;;;;;;;;;;;1478328;40;7027;-72
2021/07/29 01:39:51;;;;;;;;;;;;;;;;;;1477870;40;7003;-72
2021/07/29 01:40:53;;;;;;;;;;;;;;;;;;1477596;40;7004;-72
2021/07/29 01:41:56;;;;;;;;;;;;;;;;;;1477946;40;7007;-73
2021/07/29 01:42:58;;;;;;;;;;;;;;;;;;1478191;40;7000;-73
2021/07/29 01:44:01;;;;;;;;;;;;;;;;;;1478130;40;7203;-73
2021/07/29 01:45:03;;;;;;;;;;;;;;;;;;1478417;40;7013;-70
2021/07/29 01:46:06;;;;;;;;;;;;;;;;;;1479688;40;7274;-72
2021/07/29 01:47:08;;;;;;;;;;;;;;;;;;1481413;40;7027;-73
2021/07/29 01:48:11;;;;;;;;;;;;;;;;;;1482443;40;7134;-71
2021/07/29 01:49:19;;;;;;;;;;;;;;;;;;1482411;40;6999;-72
2021/07/29 01:50:22;;;;;;;;;;;;;;;;;;1482326;40;6999;-73
2021/07/29 01:51:25;;;;;;;;;;;;;;;;;;1478513;40;7011;-71
2021/07/29 01:52:27;;;;;;;;;;;;;;;;;;1478300;40;7016;-71
2021/07/29 01:53:29;;;;;;;;;;;;;;;;;;1478460;40;7016;-71
2021/07/29 01:54:32;;;;;;;;;;;;;;;;;;1478187;40;7039;-72
2021/07/29 01:55:34;;;;;;;;;;;;;;;;;;1478253;40;7004;-72
2021/07/29 01:56:37;;;;;;;;;;;;;;;;;;1477981;40;7931;-72
2021/07/29 01:57:39;;;;;;;;;;;;;;;;;;1478292;40;7008;-72
2021/07/29 01:58:41;;;;;;;;;;;;;;;;;;1478683;40;7003;-72
2021/07/29 01:59:44;;;;;;;;;;;;;;;;;;1479895;40;7004;-72
2021/07/29 02:00:48;;;;;;;;;;;;;;;;;;1478514;40;7565;-71
2021/07/29 02:01:50;;;;;;;;;;;;;;;;;;1478862;40;7012;-71
2021/07/29 02:02:53;;;;;;;;;;;;;;;;;;1478794;40;7035;-73
2021/07/29 02:03:56;;;;;;;;;;;;;;;;;;1479117;40;7009;-71
2021/07/29 02:04:58;;;;;;;;;;;;;;;;;;1479177;40;6999;-71
2021/07/29 02:06:01;;;;;;;;;;;;;;;;;;1479147;40;7008;-71
2021/07/29 02:07:04;;;;;;;;;;;;;;;;;;1479077;40;7013;-71
2021/07/29 02:08:06;;;;;;;;;;;;;;;;;;1479171;40;7012;-71
2021/07/29 02:09:09;;;;;;;;;;;;;;;;;;1478652;40;7079;-71
2021/07/29 02:10:11;;;;;;;;;;;;;;;;;;1478533;40;7052;-71
2021/07/29 02:11:14;;;;;;;;;;;;;;;;;;1478546;40;7016;-72
2021/07/29 02:12:16;;;;;;;;;;;;;;;;;;1478816;40;7039;-70
2021/07/29 02:13:21;;;;;;;;;;;;;;;;;;1479117;40;7000;-71
2021/07/29 02:14:24;;;;;;;;;;;;;;;;;;1479222;40;7007;-71
2021/07/29 02:15:26;;;;;;;;;;;;;;;;;;1478752;40;6999;-71
2021/07/29 02:16:30;;;;;;;;;;;;;;;;;;1478648;40;7069;-71
2021/07/29 02:17:33;;;;;;;;;;;;;;;;;;1479113;40;7031;-70
2021/07/29 02:18:35;;;;;;;;;;;;;;;;;;1478699;40;7191;-71
2021/07/29 02:19:38;;;;;;;;;;;;;;;;;;1478645;40;7035;-72
2021/07/29 02:20:40;;;;;;;;;;;;;;;;;;1478909;40;7195;-71
2021/07/29 02:21:44;;;;;;;;;;;;;;;;;;1479124;40;7947;-72
2021/07/29 02:22:46;;;;;;;;;;;;;;;;;;1478692;40;7206;-71
2021/07/29 02:23:49;;;;;;;;;;;;;;;;;;1477636;40;6999;-71
2021/07/29 02:24:51;;;;;;;;;;;;;;;;;;1478335;40;7031;-71
2021/07/29 02:25:53;;;;;;;;;;;;;;;;;;1480339;40;8013;-71
2021/07/29 02:26:56;;;;;;;;;;;;;;;;;;1482646;40;7059;-70
2021/07/29 02:27:58;;;;;;;;;;;;;;;;;;1481711;40;7039;-71
2021/07/29 02:29:00;;;;;;;;;;;;;;;;;;1479814;40;7027;-73
2021/07/29 02:30:05;;;;;;;;;;;;;;;;;;1479217;40;7007;-71
2021/07/29 02:31:07;;;;;;;;;;;;;;;;;;1482573;40;7008;-71
2021/07/29 02:32:10;;;;;;;;;;;;;;;;;;1482397;40;6999;-72
2021/07/29 02:33:12;;;;;;;;;;;;;;;;;;1481830;40;7016;-71
2021/07/29 02:34:15;;;;;;;;;;;;;;;;;;1479980;40;7931;-70
2021/07/29 02:35:17;;;;;;;;;;;;;;;;;;1482524;40;7000;-72
2021/07/29 02:36:20;;;;;;;;;;;;;;;;;;1482626;40;7922;-71
2021/07/29 02:37:23;;;;;;;;;;;;;;;;;;1478900;40;7122;-70
2021/07/29 02:38:25;;;;;;;;;;;;;;;;;;1478774;40;7119;-72
2021/07/29 02:39:28;;;;;;;;;;;;;;;;;;1478681;40;7955;-72
2021/07/29 02:40:30;;;;;;;;;;;;;;;;;;1477781;40;7301;-72
2021/07/29 02:41:34;;;;;;;;;;;;;;;;;;1478118;40;7971;-72
2021/07/29 02:42:36;;;;;;;;;;;;;;;;;;1478574;40;7047;-70
2021/07/29 02:43:39;;;;;;;;;;;;;;;;;;1486181;40;7008;-71
2021/07/29 02:44:42;;;;;;;;;;;;;;;;;;1486208;40;7036;-72
2021/07/29 02:45:45;;;;;;;;;;;;;;;;;;1482808;40;7000;-72
2021/07/29 02:46:47;;;;;;;;;;;;;;;;;;1482998;40;7012;-71
2021/07/29 02:47:50;;;;;;;;;;;;;;;;;;1482869;40;7007;-70
2021/07/29 02:48:53;;;;;;;;;;;;;;;;;;1482915;40;7003;-71
2021/07/29 02:49:55;;;;;;;;;;;;;;;;;;1482968;40;7039;-72
2021/07/29 02:50:58;;;;;;;;;;;;;;;;;;1482928;40;7203;-72
2021/07/29 02:52:00;;;;;;;;;;;;;;;;;;1479224;40;7011;-71
2021/07/29 02:53:03;;;;;;;;;;;;;;;;;;1478881;40;7129;-72
2021/07/29 02:54:06;;;;;;;;;;;;;;;;;;1477983;40;7031;-72
2021/07/29 02:55:09;;;;;;;;;;;;;;;;;;1478015;40;7015;-72
2021/07/29 02:56:11;;;;;;;;;;;;;;;;;;1478362;40;7007;-72
2021/07/29 02:57:13;;;;;;;;;;;;;;;;;;1478644;40;7067;-72
2021/07/29 02:58:16;;;;;;;;;;;;;;;;;;1482350;40;7039;-71
2021/07/29 02:59:18;;;;;;;;;;;;;;;;;;1479029;40;7003;-71
2021/07/29 03:00:21;;;;;;;;;;;;;;;;;;1478391;40;7044;-71
2021/07/29 03:01:25;;;;;;;;;;;;;;;;;;1482683;40;7024;-71
2021/07/29 03:02:28;;;;;;;;;;;;;;;;;;1483342;40;6999;-71
2021/07/29 03:03:31;;;;;;;;;;;;;;;;;;1482744;40;7007;-71
2021/07/29 03:04:33;;;;;;;;;;;;;;;;;;1482362;40;7040;-72
2021/07/29 03:05:36;;;;;;;;;;;;;;;;;;1482153;40;7031;-71
2021/07/29 03:06:38;;;;;;;;;;;;;;;;;;1481987;40;7039;-71
2021/07/29 03:07:41;;;;;;;;;;;;;;;;;;1483031;40;7002;-71
2021/07/29 03:08:43;;;;;;;;;;;;;;;;;;1482983;40;7004;-70
2021/07/29 03:09:46;;;;;;;;;;;;;;;;;;1482744;40;7023;-71
2021/07/29 03:10:48;;;;;;;;;;;;;;;;;;1482744;40;7039;-72
2021/07/29 03:11:51;;;;;;;;;;;;;;;;;;1482803;40;7518;-71
2021/07/29 03:12:53;;;;;;;;;;;;;;;;;;1482855;40;7048;-73
2021/07/29 03:13:56;;;;;;;;;;;;;;;;;;1480285;40;7000;-72
2021/07/29 03:14:58;;;;;;;;;;;;;;;;;;1482611;40;7031;-72
2021/07/29 03:16:01;;;;;;;;;;;;;;;;;;1482998;40;7044;-73
2021/07/29 03:17:03;;;;;;;;;;;;;;;;;;1479669;40;7440;-71
2021/07/29 03:18:06;;;;;;;;;;;;;;;;;;1478860;40;7054;-72
2021/07/29 03:19:08;;;;;;;;;;;;;;;;;;1479058;40;7185;-73
2021/07/29 03:20:11;;;;;;;;;;;;;;;;;;1478932;40;7932;-71
2021/07/29 03:21:13;;;;;;;;;;;;;;;;;;1479697;40;7046;-71
2021/07/29 03:22:16;;;;;;;;;;;;;;;;;;1480092;40;7003;-73
2021/07/29 03:23:18;;;;;;;;;;;;;;;;;;1480589;40;7212;-70
2021/07/29 03:24:21;;;;;;;;;;;;;;;;;;1482411;40;7003;-72
2021/07/29 03:25:23;;;;;;;;;;;;;;;;;;1482823;40;6999;-71
2021/07/29 03:26:25;;;;;;;;;;;;;;;;;;1478410;40;7434;-71
2021/07/29 03:27:28;;;;;;;;;;;;;;;;;;1480565;40;7004;-72
2021/07/29 03:28:31;;;;;;;;;;;;;;;;;;1478225;40;7012;-70
2021/07/29 03:29:33;;;;;;;;;;;;;;;;;;1478916;40;7007;-72
2021/07/29 03:30:36;;;;;;;;;;;;;;;;;;1477974;40;7007;-73
2021/07/29 03:31:39;;;;;;;;;;;;;;;;;;1482312;40;7205;-72
2021/07/29 03:32:41;;;;;;;;;;;;;;;;;;1478434;40;7039;-72
2021/07/29 03:33:44;;;;;;;;;;;;;;;;;;1478703;40;7008;-71
2021/07/29 03:34:46;;;;;;;;;;;;;;;;;;1478960;40;7004;-71
2021/07/29 03:35:49;;;;;;;;;;;;;;;;;;1482075;40;7023;-73
2021/07/29 03:36:52;;;;;;;;;;;;;;;;;;1479683;40;6999;-70
2021/07/29 03:37:54;;;;;;;;;;;;;;;;;;1478629;40;6999;-72
2021/07/29 03:38:56;;;;;;;;;;;;;;;;;;1478823;40;6999;-70
2021/07/29 03:40:04;;;;;;;;;;;;;;;;;;1477949;40;7202;-70
2021/07/29 03:41:10;;;;;;;;;;;;;;;;;;1477952;40;7000;-71
2021/07/29 03:42:12;;;;;;;;;;;;;;;;;;1478622;40;7008;-71
2021/07/29 03:43:15;;;;;;;;;;;;;;;;;;1478995;40;6999;-72
2021/07/29 03:44:17;;;;;;;;;;;;;;;;;;1478975;40;7016;-71
2021/07/29 03:45:19;;;;;;;;;;;;;;;;;;1481864;40;7012;-70
2021/07/29 03:46:22;;;;;;;;;;;;;;;;;;1482989;40;7016;-71
2021/07/29 03:47:24;;;;;;;;;;;;;;;;;;1482935;40;7007;-71
2021/07/29 03:48:27;;;;;;;;;;;;;;;;;;1482868;40;8030;-71
2021/07/29 03:49:33;;;;;;;;;;;;;;;;;;1482747;40;7311;-71
2021/07/29 03:50:37;;;;;;;;;;;;;;;;;;1482585;40;7011;-71
2021/07/29 03:51:39;;;;;;;;;;;;;;;;;;1482674;40;7286;-71
2021/07/29 03:52:41;;;;;;;;;;;;;;;;;;1482742;40;7023;-72
2021/07/29 03:53:44;;;;;;;;;;;;;;;;;;1482495;40;7009;-71
2021/07/29 03:54:51;;;;;;;;;;;;;;;;;;1482617;40;7250;-71
2021/07/29 03:55:53;;;;;;;;;;;;;;;;;;1478748;40;7303;-73
2021/07/29 03:56:55;;;;;;;;;;;;;;;;;;1482580;40;7011;-71
2021/07/29 03:57:58;;;;;;;;;;;;;;;;;;1482992;40;7071;-73
2021/07/29 03:59:01;;;;;;;;;;;;;;;;;;1478555;40;7008;-72
2021/07/29 04:00:04;;;;;;;;;;;;;;;;;;1482304;40;7004;-71
2021/07/29 04:01:09;;;;;;;;;;;;;;;;;;1482545;40;7008;-71
2021/07/29 04:02:14;;;;;;;;;;;;;;;;;;1482912;40;7012;-72
2021/07/29 04:03:17;;;;;;;;;;;;;;;;;;1486661;39;8078;-71
2021/07/29 04:04:19;;;;;;;;;;;;;;;;;;1486186;39;7003;-70
2021/07/29 04:05:22;;;;;;;;;;;;;;;;;;1478653;40;6995;-71
2021/07/29 04:06:24;;;;;;;;;;;;;;;;;;1476871;40;7007;-69
2021/07/29 04:07:27;;;;;;;;;;;;;;;;;;1480164;40;7047;-69
2021/07/29 04:08:30;;;;;;;;;;;;;;;;;;1478013;40;7212;-71
2021/07/29 04:09:33;;;;;;;;;;;;;;;;;;1479209;40;7047;-70
2021/07/29 04:10:35;;;;;;;;;;;;;;;;;;1478402;40;7035;-69
2021/07/29 04:11:38;;;;;;;;;;;;;;;;;;1478700;40;7000;-69
2021/07/29 04:12:40;;;;;;;;;;;;;;;;;;1479031;40;7031;-69
2021/07/29 04:13:43;;;;;;;;;;;;;;;;;;1478770;40;7063;-70
2021/07/29 04:14:45;;;;;;;;;;;;;;;;;;1478291;40;7008;-70
2021/07/29 04:15:48;;;;;;;;;;;;;;;;;;1478463;40;7000;-70
2021/07/29 04:16:56;;;;;;;;;;;;;;;;;;1478948;40;6999;-70
2021/07/29 04:17:59;;;;;;;;;;;;;;;;;;1478243;40;7044;-69
2021/07/29 04:19:01;;;;;;;;;;;;;;;;;;1479016;40;7035;-70
2021/07/29 04:20:04;;;;;;;;;;;;;;;;;;1478251;40;7008;-69
2021/07/29 04:21:12;;;;;;;;;;;;;;;;;;1481704;40;7289;-68
2021/07/29 04:22:15;;;;;;;;;;;;;;;;;;1482776;40;8002;-70
2021/07/29 04:23:17;;;;;;;;;;;;;;;;;;1481016;40;7716;-69
2021/07/29 04:24:19;;;;;;;;;;;;;;;;;;1477593;40;6991;-69
2021/07/29 04:25:22;;;;;;;;;;;;;;;;;;1478723;40;7035;-69
2021/07/29 04:26:24;;;;;;;;;;;;;;;;;;1478046;40;7031;-70
2021/07/29 04:27:27;;;;;;;;;;;;;;;;;;1478322;40;7048;-68
2021/07/29 04:28:30;;;;;;;;;;;;;;;;;;1478377;40;7043;-70
2021/07/29 04:29:34;;;;;;;;;;;;;;;;;;1482913;40;7151;-68
2021/07/29 04:30:36;;;;;;;;;;;;;;;;;;1482873;40;7027;-69
2021/07/29 04:31:39;;;;;;;;;;;;;;;;;;1480737;40;7003;-70
2021/07/29 04:32:42;;;;;;;;;;;;;;;;;;1481753;40;7203;-69
2021/07/29 04:33:44;;;;;;;;;;;;;;;;;;1482379;40;7970;-69
2021/07/29 04:34:47;;;;;;;;;;;;;;;;;;1481048;40;7202;-69
2021/07/29 04:35:49;;;;;;;;;;;;;;;;;;1478773;40;7031;-70
2021/07/29 04:36:55;;;;;;;;;;;;;;;;;;1477787;40;7069;-70
2021/07/29 04:37:57;;;;;;;;;;;;;;;;;;1478207;40;6999;-68
2021/07/29 04:39:02;;;;;;;;;;;;;;;;;;1482233;40;7008;-70
2021/07/29 04:40:04;;;;;;;;;;;;;;;;;;1483021;40;7007;-69
2021/07/29 04:41:07;;;;;;;;;;;;;;;;;;1478431;40;7003;-69
2021/07/29 04:42:12;;;;;;;;;;;;;;;;;;1479158;40;7013;-69
2021/07/29 04:43:15;;;;;;;;;;;;;;;;;;1482818;40;7046;-70
2021/07/29 04:44:17;;;;;;;;;;;;;;;;;;1478567;40;7935;-69
2021/07/29 04:45:20;;;;;;;;;;;;;;;;;;1478395;40;7043;-70
2021/07/29 04:46:22;;;;;;;;;;;;;;;;;;1479050;40;7188;-69
2021/07/29 04:47:25;;;;;;;;;;;;;;;;;;1478741;40;7020;-70
2021/07/29 04:48:32;;;;;;;;;;;;;;;;;;1478482;40;7951;-69
2021/07/29 04:49:34;;;;;;;;;;;;;;;;;;1478644;40;7004;-69
2021/07/29 04:50:37;;;;;;;;;;;;;;;;;;1478435;40;7027;-70
2021/07/29 04:51:40;;;;;;;;;;;;;;;;;;1478217;40;7500;-69
2021/07/29 04:52:43;;;;;;;;;;;;;;;;;;1478556;40;7003;-70
2021/07/29 04:53:45;;;;;;;;;;;;;;;;;;1478823;40;7047;-70
2021/07/29 04:54:52;;;;;;;;;;;;;;;;;;1478711;40;7983;-70
2021/07/29 04:55:54;;;;;;;;;;;;;;;;;;1478299;40;7248;-68
2021/07/29 04:56:56;;;;;;;;;;;;;;;;;;1478267;40;7936;-69
2021/07/29 04:58:03;;;;;;;;;;;;;;;;;;1478484;40;7324;-71
2021/07/29 04:59:06;;;;;;;;;;;;;;;;;;1479989;40;7004;-70
2021/07/29 05:00:08;;;;;;;;;;;;;;;;;;1482134;40;7015;-69
2021/07/29 05:01:11;;;;;;;;;;;;;;;;;;1482868;40;6999;-69
2021/07/29 05:02:17;;;;;;;;;;;;;;;;;;1482907;40;7007;-69
2021/07/29 05:03:20;;;;;;;;;;;;;;;;;;1477604;40;7036;-70
2021/07/29 05:04:22;;;;;;;;;;;;;;;;;;1477935;40;7004;-69
2021/07/29 05:05:25;;;;;;;;;;;;;;;;;;1478398;40;7983;-68
2021/07/29 05:06:27;;;;;;;;;;;;;;;;;;1482256;40;7034;-71
2021/07/29 05:07:30;;;;;;;;;;;;;;;;;;1482357;40;7011;-70
2021/07/29 05:08:33;;;;;;;;;;;;;;;;;;1478427;40;7075;-69
2021/07/29 05:09:35;;;;;;;;;;;;;;;;;;1478956;40;7012;-71
2021/07/29 05:10:38;;;;;;;;;;;;;;;;;;1478724;40;7016;-69
2021/07/29 05:11:40;;;;;;;;;;;;;;;;;;1478313;40;7045;-69
2021/07/29 05:12:43;;;;;;;;;;;;;;;;;;1478184;40;7031;-69
2021/07/29 05:13:45;;;;;;;;;;;;;;;;;;1478397;40;7160;-69
2021/07/29 05:14:48;;;;;;;;;;;;;;;;;;1478231;40;7011;-71
2021/07/29 05:15:51;;;;;;;;;;;;;;;;;;1478015;40;7039;-69
2021/07/29 05:16:53;;;;;;;;;;;;;;;;;;1478338;40;7000;-71
2021/07/29 05:17:56;;;;;;;;;;;;;;;;;;1478391;40;7187;-69
2021/07/29 05:18:59;;;;;;;;;;;;;;;;;;1478490;40;7016;-70
2021/07/29 05:20:01;;;;;;;;;;;;;;;;;;1477917;40;7035;-69
2021/07/29 05:21:07;;;;;;;;;;;;;;;;;;1481076;40;7008;-69
2021/07/29 05:22:09;;;;;;;;;;;;;;;;;;1482670;40;7047;-70
2021/07/29 05:23:12;;;;;;;;;;;;;;;;;;1481905;40;7229;-70
2021/07/29 05:24:15;;;;;;;;;;;;;;;;;;1482173;40;6999;-69
2021/07/29 05:25:22;;;;;;;;;;;;;;;;;;1480980;40;7003;-69
2021/07/29 05:26:25;;;;;;;;;;;;;;;;;;1478003;40;7055;-69
2021/07/29 05:27:27;;;;;;;;;;;;;;;;;;1477388;40;7003;-70
2021/07/29 05:28:30;;;;;;;;;;;;;;;;;;1478298;40;7007;-69
2021/07/29 05:29:33;;;;;;;;;;;;;;;;;;1477672;40;6999;-70
2021/07/29 05:30:35;;;;;;;;;;;;;;;;;;1478401;40;7019;-69
2021/07/29 05:31:41;;;;;;;;;;;;;;;;;;1479658;40;7039;-70
2021/07/29 05:32:44;;;;;;;;;;;;;;;;;;1482116;40;7432;-68
2021/07/29 05:33:46;;;;;;;;;;;;;;;;;;1482633;40;8300;-69
2021/07/29 05:34:49;;;;;;;;;;;;;;;;;;1482763;40;7009;-70
2021/07/29 05:35:51;;;;;;;;;;;;;;;;;;1482602;40;7082;-69
2021/07/29 05:36:54;;;;;;;;;;;;;;;;;;1482476;40;7035;-70
2021/07/29 05:37:56;;;;;;;;;;;;;;;;;;1483407;40;7186;-70
2021/07/29 05:38:58;;;;;;;;;;;;;;;;;;1483158;40;7506;-69
2021/07/29 05:40:01;;;;;;;;;;;;;;;;;;1482614;40;7044;-69
2021/07/29 05:41:04;;;;;;;;;;;;;;;;;;1482248;40;6999;-69
2021/07/29 05:42:06;;;;;;;;;;;;;;;;;;1483720;40;7087;-71
2021/07/29 05:43:09;;;;;;;;;;;;;;;;;;1483205;40;7039;-71
2021/07/29 05:44:12;;;;;;;;;;;;;;;;;;1482881;40;7012;-69
2021/07/29 05:45:15;;;;;;;;;;;;;;;;;;1483042;40;7011;-69
2021/07/29 05:46:17;;;;;;;;;;;;;;;;;;1482996;40;7035;-69
2021/07/29 05:47:20;;;;;;;;;;;;;;;;;;1483374;40;7011;-69
2021/07/29 05:48:22;;;;;;;;;;;;;;;;;;1478740;40;7000;-70
2021/07/29 05:49:25;;;;;;;;;;;;;;;;;;1478847;40;6999;-69
2021/07/29 05:50:27;;;;;;;;;;;;;;;;;;1478811;40;7004;-69
2021/07/29 05:51:30;;;;;;;;;;;;;;;;;;1479273;40;7963;-69
2021/07/29 05:52:32;;;;;;;;;;;;;;;;;;1479744;40;6999;-69
2021/07/29 05:53:35;;;;;;;;;;;;;;;;;;1483136;40;7027;-70
2021/07/29 05:54:38;;;;;;;;;;;;;;;;;;1482884;40;7011;-70
2021/07/29 05:55:43;;;;;;;;;;;;;;;;;;1486944;40;7016;-69
2021/07/29 05:56:48;;;;;;;;;;;;;;;;;;1481968;40;7000;-70
2021/07/29 05:57:51;;;;;;;;;;;;;;;;;;1478683;40;7202;-69
2021/07/29 05:58:53;;;;;;;;;;;;;;;;;;1479382;40;7000;-70
2021/07/29 05:59:55;;;;;;;;;;;;;;;;;;1480049;40;7000;-70
2021/07/29 06:00:58;;;;;;;;;;;;;;;;;;1478761;40;7008;-69
2021/07/29 06:02:01;;;;;;;;;;;;;;;;;;1479802;40;7259;-71
2021/07/29 06:03:04;;;;;;;;;;;;;;;;;;1483438;40;7908;-70
2021/07/29 06:04:06;;;;;;;;;;;;;;;;;;1478528;40;7898;-69
2021/07/29 06:05:09;;;;;;;;;;;;;;;;;;1479276;40;7012;-70
2021/07/29 06:06:11;;;;;;;;;;;;;;;;;;1478780;40;7035;-70
2021/07/29 06:07:14;;;;;;;;;;;;;;;;;;1478901;40;7044;-70
2021/07/29 06:08:16;;;;;;;;;;;;;;;;;;1479058;40;7066;-69
2021/07/29 06:09:19;;;;;;;;;;;;;;;;;;1478672;40;7107;-70
2021/07/29 06:10:21;;;;;;;;;;;;;;;;;;1478930;40;6999;-71
2021/07/29 06:11:24;;;;;;;;;;;;;;;;;;1478834;40;6999;-69
2021/07/29 06:12:27;;;;;;;;;;;;;;;;;;1478774;40;7007;-68
2021/07/29 06:13:31;;;;;;;;;;;;;;;;;;1479097;40;7056;-71
2021/07/29 06:14:33;;;;;;;;;;;;;;;;;;1479127;40;7011;-69
2021/07/29 06:15:36;;;;;;;;;;;;;;;;;;1483541;40;7078;-69
2021/07/29 06:16:38;;;;;;;;;;;;;;;;;;1482328;40;7968;-70
2021/07/29 06:17:44;;;;;;;;;;;;;;;;;;1478516;40;7063;-69
2021/07/29 06:20:08;;;;;;;;;;;;;;;;;;1483783;40;7039;-69
2021/07/29 06:21:10;;;;;;;;;;;;;;;;;;1483593;40;7015;-69
2021/07/29 06:22:12;;;;;;;;;;;;;;;;;;1483049;40;7031;-70
2021/07/29 06:23:15;;;;;;;;;;;;;;;;;;1482822;40;7068;-71
2021/07/29 06:24:17;;;;;;;;;;;;;;;;;;1481619;40;7184;-69
2021/07/29 06:25:20;;;;;;;;;;;;;;;;;;1478302;40;7019;-69
2021/07/29 06:26:23;;;;;;;;;;;;;;;;;;1478619;40;7004;-70
2021/07/29 06:27:25;;;;;;;;;;;;;;;;;;1478336;40;7000;-70
2021/07/29 06:28:32;;;;;;;;;;;;;;;;;;1481596;40;7083;-70
2021/07/29 06:29:35;;;;;;;;;;;;;;;;;;1482709;40;6995;-70
2021/07/29 06:30:37;;;;;;;;;;;;;;;;;;1481329;40;7000;-69
2021/07/29 06:31:40;;;;;;;;;;;;;;;;;;1478792;40;7215;-71
2021/07/29 06:32:43;;;;;;;;;;;;;;;;;;1478462;40;7012;-69
2021/07/29 06:33:45;;;;;;;;;;;;;;;;;;1480015;40;7024;-70
2021/07/29 06:34:48;;;;;;;;;;;;;;;;;;1482652;40;7039;-69
2021/07/29 06:35:50;;;;;;;;;;;;;;;;;;1482878;40;7003;-70
2021/07/29 06:36:52;;;;;;;;;;;;;;;;;;1478349;40;7023;-69
2021/07/29 06:37:57;;;;;;;;;;;;;;;;;;1482864;40;7004;-69
2021/07/29 06:38:59;;;;;;;;;;;;;;;;;;1482919;40;6999;-70
2021/07/29 06:40:06;;;;;;;;;;;;;;;;;;1482747;40;7526;-69
2021/07/29 06:41:09;;;;;;;;;;;;;;;;;;1478721;40;7008;-70
2021/07/29 06:42:11;;;;;;;;;;;;;;;;;;1479113;40;7004;-69
2021/07/29 06:43:14;;;;;;;;;;;;;;;;;;1483227;40;7060;-69
2021/07/29 06:44:16;;;;;;;;;;;;;;;;;;1482758;40;7007;-69
2021/07/29 06:45:18;;;;;;;;;;;;;;;;;;1483154;40;7011;-70
2021/07/29 06:46:21;;;;;;;;;;;;;;;;;;1483147;40;7011;-69
2021/07/29 06:47:24;;;;;;;;;;;;;;;;;;1479814;40;7016;-70
2021/07/29 06:48:26;;;;;;;;;;;;;;;;;;1479004;40;7195;-70
2021/07/29 06:49:31;;;;;;;;;;;;;;;;;;1479390;40;7035;-69
2021/07/29 06:50:33;;;;;;;;;;;;;;;;;;1479683;40;7011;-69
2021/07/29 06:51:36;;;;;;;;;;;;;;;;;;1479877;40;7003;-70
2021/07/29 06:52:39;;;;;;;;;;;;;;;;;;1478778;40;7166;-69
2021/07/29 06:53:42;;;;;;;;;;;;;;;;;;1479098;40;7008;-70
2021/07/29 06:54:44;;;;;;;;;;;;;;;;;;1484929;39;8566;-69
2021/07/29 06:55:47;;;;;;;;;;;;;;;;;;1484665;39;7011;-69
2021/07/29 06:56:56;;;;;;;;;;;;;;;;;;1482545;40;7011;-70
2021/07/29 06:57:58;;;;;;;;;;;;;;;;;;1482160;40;7911;-70
2021/07/29 06:59:01;;;;;;;;;;;;;;;;;;1479078;40;7261;-70
2021/07/29 07:00:03;;;;;;;;;;;;;;;;;;1480799;40;7003;-69
2021/07/29 07:01:06;;;;;;;;;;;;;;;;;;1479609;40;7009;-70
2021/07/29 07:02:10;;;;;;;;;;;;;;;;;;1479769;40;7040;-70
2021/07/29 07:03:12;;;;;;;;;;;;;;;;;;1478763;40;6999;-71
2021/07/29 07:04:15;;;;;;;;;;;;;;;;;;1478806;40;7230;-71
2021/07/29 07:05:18;;;;;;;;;;;;;;;;;;1478997;40;7039;-70
2021/07/29 07:06:20;;;;;;;;;;;;;;;;;;1478312;40;7054;-70
2021/07/29 07:07:22;;;;;;;;;;;;;;;;;;1480623;40;7004;-70
2021/07/29 07:08:25;;;;;;;;;;;;;;;;;;1478797;40;7920;-70
2021/07/29 07:09:29;;;;;;;;;;;;;;;;;;1478917;40;6999;-69
2021/07/29 07:10:33;;;;;;;;;;;;;;;;;;1479118;40;7007;-70
2021/07/29 07:11:35;;;;;;;;;;;;;;;;;;1478999;40;7023;-69
2021/07/29 07:12:38;;;;;;;;;;;;;;;;;;1479046;40;7190;-69
2021/07/29 07:13:40;;;;;;;;;;;;;;;;;;1479775;40;7945;-69
2021/07/29 07:14:43;;;;;;;;;;;;;;;;;;1481468;40;7024;-69
2021/07/29 07:15:45;;;;;;;;;;;;;;;;;;1478847;40;7043;-69
2021/07/29 07:16:48;;;;;;;;;;;;;;;;;;1478742;40;7003;-69
2021/07/29 07:17:50;;;;;;;;;;;;;;;;;;1478809;40;7031;-70
2021/07/29 07:18:52;;;;;;;;;;;;;;;;;;1478834;40;7167;-70
2021/07/29 07:20:00;;;;;;;;;;;;;;;;;;1479092;40;7039;-69